Stations météo

réclame
Mon MeteoGroup
Monte Cimone, Italie (16134): Température de l'air & dewpoint: 09.12.2017 20:00:00 - 15.12.2017 20:00:00 (CET)Monte Cimone, Italie (16134): Vitesse du vent: 09.12.2017 20:00:00 - 15.12.2017 20:00:00 (CET)Monte Cimone, Italie (16134): Direction du vent: 09.12.2017 20:00:00 - 15.12.2017 20:00:00 (CET)Monte Cimone, Italie (16134): visibility: 09.12.2017 20:00:00 - 15.12.2017 20:00:00 (CET)Monte Cimone, Italie (16134): Ensoleillement: 09.12.2017 20:00:00 - 15.12.2017 20:00:00 (CET)
Date & Time tt [°C] td [°C] ff [km/h] ff [knt] dd vv [km] sd [min]
15.12.2017 20:00:00 1,0 -0,5 13 7 WSW - -
15.12.2017 19:00:00 1,2 0,1 21 11 WSW - -
15.12.2017 18:00:00 1,0 -0,5 22 12 WSW - -
15.12.2017 17:00:00 1,4 0,2 21 11 WSW - 0
15.12.2017 16:00:00 1,8 0,5 13 7 WNW - 0
15.12.2017 15:00:00 1,8 0,6 21 11 SW - 0
15.12.2017 14:00:00 1,4 0,1 28 15 WSW - 0
15.12.2017 13:00:00 1,2 -0,1 26 14 WSW - 0
15.12.2017 12:00:00 1,0 -0,3 31 17 WSW - 0
15.12.2017 11:00:00 0,6 -0,5 26 14 SSW - 0
15.12.2017 10:00:00 -0,2 -0,9 31 17 SW - 0
15.12.2017 09:00:00 -1,0 -1,7 28 15 W - 0
15.12.2017 08:00:00 0,2 -1,1 31 17 SW - 0
15.12.2017 07:00:00 0,2 -0,8 35 19 SW - -
15.12.2017 06:00:00 0,2 -1,4 37 20 SSW - -
15.12.2017 05:00:00 0,2 -1,4 39 21 SSW - -
15.12.2017 04:00:00 0,6 -0,9 37 20 SW - -
15.12.2017 03:00:00 0,4 -1,0 37 20 SW - -
15.12.2017 02:00:00 0,2 -1,4 42 23 SW - -
15.12.2017 01:00:00 0,0 -1,4 41 22 SW - -
15.12.2017 00:00:00 0,2 -1,2 29 16 WSW - -
14.12.2017 23:00:00 0,0 -1,6 42 23 SW - -
14.12.2017 22:00:00 0,0 -1,9 42 23 SW - -
14.12.2017 21:00:00 0,2 -1,7 50 27 WSW - -
14.12.2017 20:00:00 0,2 -1,9 46 25 WSW - -
14.12.2017 19:00:00 0,4 -1,4 31 17 SSW - -
14.12.2017 18:00:00 0,4 -1,3 31 17 SW - -
14.12.2017 17:00:00 0,4 -1,0 31 17 SW - -
14.12.2017 16:00:00 0,4 -1,0 26 14 SW - -
14.12.2017 15:00:00 0,4 -1,0 24 13 SW - -
14.12.2017 14:00:00 0,4 -1,0 29 16 WSW - 0
14.12.2017 13:00:00 0,6 -0,7 22 12 WSW - 0
14.12.2017 12:00:00 0,8 -0,5 28 15 WSW - 0
14.12.2017 11:00:00 0,4 -0,9 18 10 ESE - 0
14.12.2017 10:00:00 0,2 -1,2 16 9 E - -
14.12.2017 09:00:00 0,2 -1,4 21 11 SW - 0
14.12.2017 08:00:00 0,0 -1,6 18 10 S - 0
14.12.2017 07:00:00 0,0 -1,4 26 14 SSW - -
14.12.2017 06:00:00 -0,6 -2,0 16 9 WNW - -
14.12.2017 05:00:00 -0,6 -2,0 18 10 WSW - -
14.12.2017 04:00:00 -0,8 -2,2 18 10 SSW - -
14.12.2017 03:00:00 -1,0 -2,4 15 8 NE - -
14.12.2017 02:00:00 -1,0 -2,4 18 10 N - -
14.12.2017 01:00:00 -1,6 -3,0 22 12 W - -
14.12.2017 00:00:00 -1,8 -3,2 18 10 WNW - -
13.12.2017 23:00:00 -2,0 -3,6 21 11 WSW - -
13.12.2017 22:00:00 -2,8 -4,3 21 11 SSW - -
13.12.2017 21:00:00 -2,4 -4,7 22 12 SW 30 -
13.12.2017 20:00:00 -2,4 -4,7 21 11 SW 30 -
13.12.2017 19:00:00 -2,0 -5,0 16 9 SW 40 -
13.12.2017 18:00:00 -2,2 -6,4 15 8 SSW 40 -
13.12.2017 17:00:00 -2,2 -4,7 35 19 SW 40 12
13.12.2017 16:00:00 -2,0 -4,6 22 12 SSW 40 54
13.12.2017 15:00:00 -1,6 -3,6 22 12 SSW 0,2 0
13.12.2017 14:00:00 -1,8 -3,8 9 5 S 0,3 0
13.12.2017 13:00:00 -1,8 -3,8 11 6 SSE 0,3 0
13.12.2017 12:00:00 -1,8 -3,8 15 8 S 0,3 0
13.12.2017 11:00:00 -1,8 -3,8 11 6 WSW 0,3 0
13.12.2017 10:00:00 -1,8 -3,8 15 8 S 0,3 0
13.12.2017 09:00:00 -1,8 -3,7 11 6 SSE - 0
13.12.2017 08:00:00 -2,0 -3,4 13 7 SSW - 0
13.12.2017 07:00:00 -1,8 -3,2 24 13 WSW - -
13.12.2017 06:00:00 -1,8 -3,1 13 7 WSW - -
13.12.2017 05:00:00 -1,6 -2,7 11 6 SSE - -
13.12.2017 04:00:00 -2,0 -3,1 11 6 S - -
13.12.2017 03:00:00 -2,0 -3,1 13 7 WSW - -
13.12.2017 02:00:00 -1,8 -2,8 9 5 WSW - -
13.12.2017 01:00:00 -1,4 -2,4 15 8 SW - -
13.12.2017 00:00:00 -1,8 -2,9 16 9 SW - -
12.12.2017 23:00:00 -1,8 -2,9 18 10 S - -
12.12.2017 22:00:00 -2,0 -3,1 13 7 WSW - -
12.12.2017 21:00:00 -2,2 -3,3 11 6 WNW - -
12.12.2017 20:00:00 -2,0 -3,1 15 8 W - -
12.12.2017 19:00:00 -2,0 -3,1 22 12 WSW - -
12.12.2017 18:00:00 -2,0 -3,1 15 8 SSW - -
12.12.2017 17:00:00 -2,2 -3,3 13 7 WSW - 0
12.12.2017 16:00:00 -2,2 -3,3 11 6 N - 0
12.12.2017 15:00:00 -2,2 -3,3 15 8 NW - 0
12.12.2017 14:00:00 -2,2 -3,3 16 9 NE - 0
12.12.2017 13:00:00 -2,0 -3,3 16 9 E - 0
12.12.2017 12:00:00 -2,0 -3,7 22 12 WSW - 0
12.12.2017 11:00:00 -2,0 -3,7 15 8 N 40 0
12.12.2017 10:00:00 -1,8 -3,5 24 13 SW 40 0
12.12.2017 09:00:00 -1,8 -3,5 29 16 WSW 40 0
12.12.2017 08:00:00 -1,6 -3,3 22 12 SSW 30 0
12.12.2017 07:00:00 -1,4 -3,1 22 12 E - -
12.12.2017 06:00:00 -1,0 -2,6 29 16 SW - -
12.12.2017 05:00:00 -1,0 -2,6 22 12 NNW - -
12.12.2017 04:00:00 -1,0 -2,6 22 12 N - -
12.12.2017 03:00:00 -0,4 -2,0 18 10 N - -
12.12.2017 02:00:00 0,0 -1,6 24 13 SSE - -
12.12.2017 01:00:00 0,0 -1,6 37 20 SSW - -
12.12.2017 00:00:00 0,0 -1,4 55 30 SW - -
11.12.2017 23:00:00 0,0 -1,4 67 36 SW - -
11.12.2017 22:00:00 0,0 -1,4 106 57 SSW - -
11.12.2017 21:00:00 0,0 -1,4 94 51 SSW - -
11.12.2017 20:00:00 0,0 -1,4 94 51 SSW - -
11.12.2017 19:00:00 0,4 -0,8 63 34 SW - -
11.12.2017 18:00:00 0,2 -1,1 34 18 W - 0
11.12.2017 17:00:00 0,0 -1,1 50 27 WSW - 0
11.12.2017 16:00:00 0,0 -1,1 42 23 WSW - 0
11.12.2017 15:00:00 0,2 -0,9 37 20 WSW - 0
11.12.2017 14:00:00 0,4 -0,8 34 18 SSE - 0
11.12.2017 13:00:00 0,2 -1,0 37 20 SE - 0
11.12.2017 12:00:00 0,4 -0,6 35 19 E - 0
11.12.2017 11:00:00 1,0 0,4 31 17 E - 60
11.12.2017 10:00:00 1,0 0,4 28 15 E - 0
11.12.2017 09:00:00 1,0 0,6 28 15 ESE - 0
11.12.2017 08:00:00 0,8 0,4 24 13 S - 0
11.12.2017 07:00:00 0,8 0,4 15 8 ENE - -
11.12.2017 06:00:00 0,6 0,2 18 10 ENE - -
11.12.2017 05:00:00 0,6 0,2 24 13 SSW - -
11.12.2017 04:00:00 -0,6 -1,2 28 15 SSW - -
11.12.2017 03:00:00 -0,6 -1,2 28 15 SSW - -
11.12.2017 02:00:00 -0,4 -1,0 46 25 SSW - -
11.12.2017 01:00:00 -0,4 -1,0 42 23 SSW - -
11.12.2017 00:00:00 -0,4 -1,0 41 22 SW - -
10.12.2017 23:00:00 -0,4 -1,0 28 15 SSW - -
10.12.2017 22:00:00 -0,6 -1,2 52 28 SW - -
10.12.2017 21:00:00 -0,6 -1,3 39 21 SW - -
10.12.2017 20:00:00 -1,0 -1,3 31 17 SW - -
10.12.2017 19:00:00 -1,4 -1,5 24 13 SE - -
10.12.2017 18:00:00 -2,0 -2,0 22 12 E - -
10.12.2017 17:00:00 -2,8 -2,8 22 12 ESE - 0
10.12.2017 16:00:00 -3,2 -3,2 22 12 E - 0
10.12.2017 15:00:00 -5,0 -5,0 22 12 S - 0
10.12.2017 14:00:00 -4,8 -5,3 22 12 SE - 0
10.12.2017 13:00:00 -3,6 -4,4 37 20 SSW - 0
10.12.2017 12:00:00 -4,0 -4,7 37 20 SSW - 0
10.12.2017 11:00:00 -5,0 -5,5 28 15 SSW - 0
10.12.2017 10:00:00 -6,0 -6,4 28 15 SSW - 0
10.12.2017 09:00:00 -7,0 -7,7 28 15 SSW - 0
10.12.2017 08:00:00 -6,0 -6,8 28 15 SSW - -
10.12.2017 07:00:00 -7,0 -8,1 18 10 SSW 10 -
10.12.2017 06:00:00 -7,0 -9,7 16 9 SSE 10 -
10.12.2017 05:00:00 -7,4 -9,9 11 6 WSW 50 -
10.12.2017 04:00:00 -7,6 -11,9 15 8 S 50 -
10.12.2017 03:00:00 -6,2 -11,9 26 14 SW 50 -
10.12.2017 02:00:00 -6,8 -12,7 11 6 SW 50 -
10.12.2017 01:00:00 -7,0 -11,7 11 6 SSW 50 -
10.12.2017 00:00:00 -8,0 -14,4 28 15 SW 50 -
09.12.2017 23:00:00 -9,6 -15,7 22 12 WNW 50 -
09.12.2017 22:00:00 -9,6 -17,0 18 10 NNW 50 -
09.12.2017 21:00:00 -11,0 -19,4 26 14 NNW 50 -
09.12.2017 20:00:00 -10,4 -17,5 28 15 NNW 50 -

tt = Température de l'air
td = dewpoint
ff = Vitesse du vent
dd = Direction du vent
vv = visibility
sd = Ensoleillement

stations d'obs. à proximité